createdAt,value
2022-10-15T00:03:22.175Z,15.26
2022-10-15T00:07:26.851Z,15.27
2022-10-15T00:11:31.972Z,15.27
2022-10-15T00:15:38.205Z,15.28
2022-10-15T00:19:41.839Z,15.25
2022-10-15T00:23:47.476Z,15.27
2022-10-15T00:27:50.934Z,15.26
2022-10-15T00:31:54.771Z,15.26
2022-10-15T00:36:06.314Z,15.27
2022-10-15T00:40:15.510Z,15.26
2022-10-15T00:44:54.271Z,15.27
2022-10-15T00:53:11.256Z,15.24
2022-10-15T00:57:16.449Z,15.25
2022-10-15T01:01:19.633Z,15.24
2022-10-15T01:05:24.067Z,15.23
2022-10-15T01:09:27.616Z,15.22
2022-10-15T01:13:37.438Z,15.21
2022-10-15T01:17:46.824Z,15.19
2022-10-15T01:21:56.338Z,15.17
2022-10-15T01:26:15.866Z,15.15
2022-10-15T01:30:38.961Z,15.13
2022-10-15T01:34:44.969Z,15.16
2022-10-15T01:38:57.097Z,15.12
2022-10-15T01:43:02.654Z,15.09
2022-10-15T01:47:11.042Z,15.06
2022-10-15T01:51:17.174Z,15.05
2022-10-15T01:55:23.241Z,15.04
2022-10-15T01:59:32.879Z,15.04
2022-10-15T02:03:47.573Z,15.05
2022-10-15T02:07:58.658Z,15.06
2022-10-15T02:12:12.341Z,15.07
2022-10-15T02:16:26.297Z,15.09
2022-10-15T02:20:34.923Z,15.09
2022-10-15T02:24:44.216Z,15.10
2022-10-15T02:28:52.979Z,15.12
2022-10-15T02:33:00.123Z,15.13
2022-10-15T02:37:06.875Z,15.13
2022-10-15T02:41:11.207Z,15.12
2022-10-15T02:45:14.139Z,15.11
2022-10-15T02:49:17.643Z,15.09
2022-10-15T02:53:22.036Z,15.09
2022-10-15T02:57:25.870Z,15.08
2022-10-15T03:01:29.666Z,15.07
2022-10-15T03:05:33.096Z,15.06
2022-10-15T03:09:38.076Z,15.07
2022-10-15T03:13:41.441Z,15.06
2022-10-15T03:17:45.087Z,15.06
2022-10-15T03:21:48.086Z,15.04
2022-10-15T03:25:53.453Z,15.04
2022-10-15T03:29:56.964Z,15.03
2022-10-15T03:33:59.975Z,15.03
2022-10-15T03:38:03.500Z,15.01
2022-10-15T03:42:08.301Z,15.02
2022-10-15T03:46:11.957Z,15.02
2022-10-15T03:50:15.465Z,15.02
2022-10-15T03:54:19.129Z,15.01
2022-10-15T03:58:23.861Z,15.00
2022-10-15T04:02:27.391Z,14.99
2022-10-15T04:06:31.153Z,14.97
2022-10-15T04:10:34.180Z,14.95
2022-10-15T04:14:39.928Z,14.95
2022-10-15T04:18:43.353Z,14.93
2022-10-15T04:22:46.351Z,14.94
2022-10-15T04:26:49.811Z,14.93
2022-10-15T04:30:57.852Z,14.94
2022-10-15T04:35:00.910Z,14.95
2022-10-15T04:39:08.604Z,14.97
2022-10-15T04:43:13.929Z,14.98
2022-10-15T04:47:18.839Z,14.98
2022-10-15T04:51:23.314Z,14.98
2022-10-15T04:55:26.575Z,14.98
2022-10-15T04:59:30.136Z,15.01
2022-10-15T05:03:38.646Z,15.04
2022-10-15T05:07:44.367Z,15.00
2022-10-15T05:11:47.983Z,15.09
2022-10-15T05:15:51.594Z,15.08
2022-10-15T05:19:55.927Z,15.14
2022-10-15T05:24:00.145Z,15.14
2022-10-15T05:28:03.590Z,15.15
2022-10-15T05:32:07.399Z,15.14
2022-10-15T05:36:12.969Z,15.11
2022-10-15T05:40:19.653Z,15.15
2022-10-15T05:44:25.793Z,15.15
2022-10-15T05:48:28.888Z,15.17
2022-10-15T05:52:33.653Z,15.14
2022-10-15T05:56:36.968Z,15.10
2022-10-15T06:00:40.986Z,15.12
2022-10-15T06:04:44.444Z,15.12
2022-10-15T06:08:49.891Z,15.13
2022-10-15T06:12:52.945Z,15.16
2022-10-15T06:16:56.363Z,15.19
2022-10-15T06:20:59.587Z,15.15
2022-10-15T06:25:04.449Z,15.24
2022-10-15T06:29:08.011Z,15.26
2022-10-15T06:37:19.788Z,15.29
2022-10-15T06:41:24.639Z,15.32
2022-10-15T06:45:27.705Z,15.33
2022-10-15T06:49:31.209Z,15.39
2022-10-15T06:53:35.044Z,15.39
2022-10-15T06:57:39.491Z,15.49
2022-10-15T07:01:43.032Z,15.49
2022-10-15T07:05:46.023Z,15.53
2022-10-15T07:09:53.762Z,15.56
2022-10-15T07:13:59.185Z,15.61
2022-10-15T07:18:03.273Z,15.66
2022-10-15T07:22:06.331Z,15.73
2022-10-15T07:26:09.890Z,15.81
2022-10-15T07:30:14.854Z,15.91
2022-10-15T07:34:17.914Z,15.95
2022-10-15T07:38:21.644Z,16.07
2022-10-15T07:42:25.065Z,16.15
2022-10-15T07:46:29.576Z,16.21
2022-10-15T07:50:35.601Z,16.22
2022-10-15T07:54:40.891Z,16.25
2022-10-15T07:58:52.235Z,16.28
2022-10-15T08:02:56.635Z,16.30
2022-10-15T08:07:00.375Z,16.35
2022-10-15T08:11:07.064Z,16.41
2022-10-15T08:15:10.731Z,16.46
2022-10-15T08:19:18.114Z,16.39
2022-10-15T08:23:21.645Z,16.52
2022-10-15T08:27:24.640Z,16.55
2022-10-15T08:31:28.022Z,16.59
2022-10-15T08:35:35.985Z,16.61
2022-10-15T08:39:38.966Z,16.62
2022-10-15T08:43:45.365Z,16.64
2022-10-15T08:47:53.017Z,16.65
2022-10-15T08:52:07.752Z,16.68
2022-10-15T08:56:17.811Z,16.70
2022-10-15T09:00:23.194Z,16.70
2022-10-15T09:04:32.600Z,16.81
2022-10-15T09:08:47.269Z,16.88
2022-10-15T09:12:58.721Z,16.94
2022-10-15T09:17:09.821Z,17.03
2022-10-15T09:21:15.272Z,17.01
2022-10-15T09:25:22.103Z,17.11
2022-10-15T09:29:33.099Z,17.10
2022-10-15T09:33:41.432Z,17.05
2022-10-15T09:37:54.747Z,17.00
2022-10-15T09:42:10.093Z,17.03
2022-10-15T09:46:13.956Z,17.03
2022-10-15T09:54:28.537Z,17.05
2022-10-15T09:58:41.013Z,17.13
2022-10-15T10:02:44.157Z,17.20
2022-10-15T10:06:51.302Z,17.25
2022-10-15T10:10:59.641Z,17.34
2022-10-15T10:15:10.181Z,17.38
2022-10-15T10:19:15.922Z,17.43
2022-10-15T10:23:24.927Z,17.47
2022-10-15T10:27:32.180Z,17.45
2022-10-15T10:31:42.533Z,17.45
2022-10-15T10:35:50.726Z,17.50
2022-10-15T10:39:56.194Z,17.50
2022-10-15T10:43:59.250Z,17.54
2022-10-15T10:48:20.513Z,17.58
2022-10-15T10:52:27.092Z,17.60
2022-10-15T10:56:35.458Z,17.64
2022-10-15T11:00:42.639Z,17.76
2022-10-15T11:04:48.492Z,17.90
2022-10-15T11:09:04.041Z,18.04
2022-10-15T11:13:28.892Z,18.19
2022-10-15T11:17:46.140Z,18.39
2022-10-15T11:22:05.542Z,18.58
2022-10-15T11:26:29.725Z,18.76
2022-10-15T11:30:50.569Z,18.94
2022-10-15T11:35:17.172Z,19.07
2022-10-15T11:39:51.128Z,19.23
2022-10-15T11:44:13.627Z,19.39
2022-10-15T11:48:24.358Z,19.52
2022-10-15T11:52:45.796Z,19.60
2022-10-15T11:56:53.419Z,19.71
2022-10-15T12:01:02.271Z,19.80
2022-10-15T12:05:10.576Z,19.89
2022-10-15T12:09:20.451Z,19.92
2022-10-15T12:13:35.925Z,19.93
2022-10-15T12:17:44.599Z,19.98
2022-10-15T12:22:07.522Z,20.04
2022-10-15T12:26:32.355Z,20.12
2022-10-15T12:30:38.392Z,20.17
2022-10-15T12:34:44.028Z,20.20
2022-10-15T12:39:02.596Z,20.28
2022-10-15T12:43:16.596Z,20.43
2022-10-15T12:47:49.948Z,20.62
2022-10-15T12:51:56.194Z,20.80
2022-10-15T12:56:23.731Z,21.00
2022-10-15T13:00:44.242Z,21.08
2022-10-15T13:04:49.322Z,21.08
2022-10-15T13:08:55.372Z,21.05
2022-10-15T13:13:02.692Z,21.07
2022-10-15T13:17:15.256Z,21.09
2022-10-15T13:21:19.753Z,21.07
2022-10-15T13:25:23.534Z,21.02
2022-10-15T13:29:28.069Z,20.95
2022-10-15T13:33:32.572Z,20.93
2022-10-15T13:37:38.026Z,20.98
2022-10-15T13:41:41.279Z,21.10
2022-10-15T13:45:48.406Z,21.28
2022-10-15T13:49:54.372Z,21.45
2022-10-15T13:53:59.363Z,21.60
2022-10-15T13:58:07.412Z,21.71
2022-10-15T14:02:13.464Z,21.79
2022-10-15T14:06:20.355Z,21.84
2022-10-15T14:10:24.996Z,21.88
2022-10-15T14:14:31.172Z,21.94
2022-10-15T14:18:39.183Z,22.03
2022-10-15T14:22:42.203Z,22.15
2022-10-15T14:26:48.015Z,22.33
2022-10-15T14:30:51.144Z,22.48
2022-10-15T14:34:56.001Z,22.57
2022-10-15T14:39:27.554Z,22.60
2022-10-15T14:43:35.403Z,22.56
2022-10-15T14:47:39.201Z,22.50
2022-10-15T14:51:42.296Z,22.44
2022-10-15T14:55:51.646Z,22.37
2022-10-15T14:59:57.809Z,22.31
2022-10-15T15:04:01.369Z,22.24
2022-10-15T15:08:07.889Z,22.21
2022-10-15T15:12:17.830Z,22.13
2022-10-15T15:16:22.987Z,22.05
2022-10-15T15:20:26.833Z,21.99
2022-10-15T15:24:30.500Z,21.97
2022-10-15T15:28:34.609Z,21.96
2022-10-15T15:32:40.993Z,21.99
2022-10-15T15:36:45.805Z,21.96
2022-10-15T15:40:50.538Z,21.86
2022-10-15T15:44:53.512Z,21.68
2022-10-15T15:48:59.819Z,21.43
2022-10-15T15:53:03.619Z,21.13
2022-10-15T15:57:07.113Z,20.84
2022-10-15T16:01:11.245Z,20.60
2022-10-15T16:05:17.827Z,20.42
2022-10-15T16:09:23.244Z,20.26
2022-10-15T16:13:27.244Z,20.12
2022-10-15T16:17:30.633Z,20.01
2022-10-15T16:21:36.558Z,19.91
2022-10-15T16:25:39.957Z,19.82
2022-10-15T16:29:43.777Z,19.75
2022-10-15T16:33:47.727Z,19.68
2022-10-15T16:37:54.122Z,19.60
2022-10-15T16:41:59.174Z,19.52
2022-10-15T16:46:10.887Z,19.44
2022-10-15T16:50:14.840Z,19.35
2022-10-15T16:54:30.462Z,19.22
2022-10-15T16:58:35.697Z,19.05
2022-10-15T17:02:40.111Z,18.86
2022-10-15T17:06:44.131Z,18.67
2022-10-15T17:10:51.293Z,18.52
2022-10-15T17:15:03.389Z,18.36
2022-10-15T17:19:09.112Z,18.20
2022-10-15T17:23:12.767Z,18.06
2022-10-15T17:27:17.399Z,17.93
2022-10-15T17:31:23.283Z,17.83
2022-10-15T17:35:26.280Z,17.72
2022-10-15T17:39:30.159Z,17.63
2022-10-15T17:43:39.204Z,17.52
2022-10-15T17:47:44.045Z,17.39
2022-10-15T17:51:48.370Z,17.39
2022-10-15T17:55:52.631Z,17.31
2022-10-15T17:59:57.067Z,17.25
2022-10-15T18:04:00.585Z,17.17
2022-10-15T18:08:04.204Z,17.12
2022-10-15T18:12:08.167Z,17.07
2022-10-15T18:16:12.593Z,17.01
2022-10-15T18:20:16.157Z,16.97
2022-10-15T18:24:22.176Z,16.93
2022-10-15T18:28:26.496Z,16.91
2022-10-15T18:32:31.715Z,16.88
2022-10-15T18:36:35.459Z,16.90
2022-10-15T18:40:41.199Z,16.92
2022-10-15T18:44:45.075Z,16.97
2022-10-15T18:48:51.024Z,17.05
2022-10-15T18:52:54.648Z,17.12
2022-10-15T18:56:57.707Z,17.18
2022-10-15T19:01:11.541Z,17.22
2022-10-15T19:05:16.163Z,17.24
2022-10-15T19:09:22.004Z,17.24
2022-10-15T19:13:28.295Z,17.19
2022-10-15T19:17:31.880Z,17.18
2022-10-15T19:21:38.290Z,17.12
2022-10-15T19:25:42.850Z,17.06
2022-10-15T19:29:46.920Z,16.97
2022-10-15T19:33:50.161Z,16.91
2022-10-15T19:37:55.124Z,16.86
2022-10-15T19:41:58.786Z,16.81
2022-10-15T19:46:05.131Z,16.78
2022-10-15T19:50:09.049Z,16.71
2022-10-15T19:54:14.102Z,16.68
2022-10-15T19:58:17.337Z,16.65
2022-10-15T20:02:20.988Z,16.63
2022-10-15T20:06:24.130Z,16.61
2022-10-15T20:10:30.275Z,16.61
2022-10-15T20:14:34.499Z,16.57
2022-10-15T20:18:37.952Z,16.60
2022-10-15T20:22:42.864Z,16.61
2022-10-15T20:26:47.979Z,16.64
2022-10-15T20:30:56.117Z,16.61
2022-10-15T20:34:59.661Z,16.61
2022-10-15T20:39:03.513Z,16.62
2022-10-15T20:43:08.177Z,16.62
2022-10-15T20:47:16.231Z,16.62
2022-10-15T20:51:25.980Z,16.60
2022-10-15T20:55:31.630Z,16.66
2022-10-15T20:59:36.684Z,16.68
2022-10-15T21:03:42.201Z,16.68
2022-10-15T21:07:45.980Z,16.68
2022-10-15T21:11:48.943Z,16.68
2022-10-15T21:15:59.392Z,16.65
2022-10-15T21:20:02.933Z,16.58
2022-10-15T21:24:07.079Z,16.51
2022-10-15T21:28:10.102Z,16.42
2022-10-15T21:32:15.067Z,16.34
2022-10-15T21:36:21.898Z,16.23
2022-10-15T21:40:25.582Z,16.17
2022-10-15T21:44:28.614Z,16.10
2022-10-15T21:48:33.398Z,16.05
2022-10-15T21:52:36.539Z,15.99
2022-10-15T21:56:40.970Z,15.96
2022-10-15T22:00:43.927Z,15.94
2022-10-15T22:04:48.943Z,15.93
2022-10-15T22:08:51.964Z,15.92
2022-10-15T22:12:57.452Z,15.90
2022-10-15T22:17:00.909Z,15.83
2022-10-15T22:21:15.585Z,15.88
2022-10-15T22:25:19.360Z,15.84
2022-10-15T22:29:24.856Z,15.80
2022-10-15T22:33:27.827Z,15.78
2022-10-15T22:37:32.924Z,15.75
2022-10-15T22:41:39.220Z,15.73
2022-10-15T22:45:42.622Z,15.72
2022-10-15T22:49:45.769Z,15.71
2022-10-15T22:53:50.776Z,15.73
2022-10-15T22:57:54.124Z,15.71
2022-10-15T23:01:57.569Z,15.72
2022-10-15T23:06:00.584Z,15.71
2022-10-15T23:10:05.360Z,15.69
2022-10-15T23:14:11.392Z,15.68
2022-10-15T23:18:14.480Z,15.65
2022-10-15T23:22:17.884Z,15.60
2022-10-15T23:26:22.791Z,15.57
2022-10-15T23:30:26.042Z,15.54
2022-10-15T23:34:29.845Z,15.52
2022-10-15T23:38:33.149Z,15.54
2022-10-15T23:42:37.580Z,15.57
2022-10-15T23:46:41.320Z,15.59
2022-10-15T23:50:44.344Z,15.59
2022-10-15T23:54:48.345Z,15.59
2022-10-15T23:58:55.025Z,15.58
